Terminal Aerodrome Forecast
Issued by NWS Pittsburgh, PA

Current Version | Previous Version | Text Only | Print | Product List | Glossary Off
Versions: 1 2 3 4 5 6 7 8 9 10 11 12 13 14 15 16 17 18 19 20 21 22 23 24 25 26 27 28

055
FTUS41 KPBZ 031428 AAA
TAFPIT
TAF AMD
KPIT 031428Z 0314/0418 28010KT P6SM -SN OVC022
      TEMPO 0314/0318 5SM -SHSN
     FM031800 27008G16KT P6SM OVC025
     FM032300 27006KT P6SM BKN035
     FM041500 18005KT P6SM OVC120=

USA.gov is the U.S. government's official web portal to all federal, state and local government web resources and services.